Time;durP1;ratioP1;P1;durP2;ratioP2;P2;SDS_P1;SDS_P2;PMS_P1;PMS_P2;Temp;Humidity;BMP_temperature;BMP_pressure;BME280_temperature;BME280_humidity;BME280_pressure;Samples;Min_cycle;Max_cycle;Signal;HPM_P1;HPM_P2
2021/12/30 00:02:03;;;;;;;1.50;0.60;;;;;;;;;;4999523;28;20054;-82
2021/12/30 00:04:30;;;;;;;1.10;0.45;;;;;;;;;;4998861;28;20054;-82
2021/12/30 00:06:58;;;;;;;1.45;0.50;;;;;;;;;;4999886;28;20042;-82
2021/12/30 00:09:28;;;;;;;2.17;0.70;;;;;;;;;;5000507;28;20435;-82
2021/12/30 00:11:56;;;;;;;1.33;0.57;;;;;;;;;;5001732;28;20478;-82
2021/12/30 00:14:23;;;;;;;0.82;0.50;;;;;;;;;;5001796;28;20057;-85
2021/12/30 00:16:50;;;;;;;3.35;1.13;;;;;;;;;;5019337;28;20412;-82
2021/12/30 00:19:17;;;;;;;2.10;1.00;;;;;;;;;;5016389;28;20105;-83
2021/12/30 00:21:43;;;;;;;5.10;1.60;;;;;;;;;;5016610;28;20062;-82
2021/12/30 00:24:12;;;;;;;2.67;1.00;;;;;;;;;;5009781;28;20042;-82
2021/12/30 00:26:39;;;;;;;4.20;1.30;;;;;;;;;;5005312;28;20042;-82
2021/12/30 00:29:05;;;;;;;2.75;0.95;;;;;;;;;;5007523;28;20108;-83
2021/12/30 00:31:32;;;;;;;2.65;1.05;;;;;;;;;;5002967;28;20057;-82
2021/12/30 00:33:59;;;;;;;2.08;0.70;;;;;;;;;;5005760;28;20092;-83
2021/12/30 00:36:26;;;;;;;0.80;0.60;;;;;;;;;;5004368;28;20575;-82
2021/12/30 00:38:53;;;;;;;2.05;0.70;;;;;;;;;;5001231;28;20050;-82
2021/12/30 00:41:22;;;;;;;1.80;0.80;;;;;;;;;;4997160;28;20054;-82
2021/12/30 00:43:48;;;;;;;2.03;0.80;;;;;;;;;;4997693;28;20050;-82
2021/12/30 00:46:16;;;;;;;1.33;0.70;;;;;;;;;;4997727;28;20046;-82
2021/12/30 00:48:43;;;;;;;1.95;0.52;;;;;;;;;;4997294;28;20051;-82
2021/12/30 00:51:10;;;;;;;1.95;0.60;;;;;;;;;;4996980;28;20105;-82
2021/12/30 00:53:37;;;;;;;1.08;0.40;;;;;;;;;;4997264;28;20046;-82
2021/12/30 00:56:04;;;;;;;0.88;0.52;;;;;;;;;;4998163;28;20465;-82
2021/12/30 00:58:33;;;;;;;0.85;0.50;;;;;;;;;;5007515;28;20046;-82
2021/12/30 01:01:03;;;;;;;1.40;0.50;;;;;;;;;;4999045;28;20073;-83
2021/12/30 01:03:30;;;;;;;1.13;0.50;;;;;;;;;;4997638;28;20481;-82
2021/12/30 01:05:56;;;;;;;1.83;0.63;;;;;;;;;;4997312;28;20501;-83
2021/12/30 01:08:23;;;;;;;0.80;0.40;;;;;;;;;;4995611;28;20108;-82
2021/12/30 01:10:51;;;;;;;1.00;0.60;;;;;;;;;;4996490;28;20092;-82
2021/12/30 01:13:24;;;;;;;1.10;0.52;;;;;;;;;;4996532;28;20042;-82
2021/12/30 01:15:59;;;;;;;2.33;0.95;;;;;;;;;;4997002;28;20395;-83
2021/12/30 01:18:38;;;;;;;0.88;0.50;;;;;;;;;;4995968;28;20077;-82
2021/12/30 01:21:07;;;;;;;0.85;0.43;;;;;;;;;;4996722;28;20062;-82
2021/12/30 01:23:33;;;;;;;1.00;0.45;;;;;;;;;;5008251;28;20235;-82
2021/12/30 01:26:00;;;;;;;0.90;0.50;;;;;;;;;;5015208;28;20050;-82
2021/12/30 01:28:28;;;;;;;0.57;0.40;;;;;;;;;;5015920;28;20042;-82
2021/12/30 01:30:58;;;;;;;1.00;0.50;;;;;;;;;;5013434;28;20054;-83
2021/12/30 01:33:24;;;;;;;0.40;0.30;;;;;;;;;;5002734;28;20042;-83
2021/12/30 01:35:51;;;;;;;1.92;0.50;;;;;;;;;;5000586;28;20046;-82
2021/12/30 01:38:18;;;;;;;1.27;0.50;;;;;;;;;;5016668;28;20042;-82
2021/12/30 01:40:48;;;;;;;1.10;0.50;;;;;;;;;;5016977;28;20071;-82
2021/12/30 01:43:15;;;;;;;1.63;0.40;;;;;;;;;;4999770;28;20137;-82
2021/12/30 01:45:43;;;;;;;1.35;0.45;;;;;;;;;;4998326;28;20101;-82
2021/12/30 01:48:12;;;;;;;1.90;0.63;;;;;;;;;;4996621;28;20461;-82
2021/12/30 01:50:39;;;;;;;0.95;0.40;;;;;;;;;;4997588;28;20105;-82
2021/12/30 01:53:07;;;;;;;1.00;0.50;;;;;;;;;;4996670;28;20050;-83
2021/12/30 01:55:35;;;;;;;1.15;0.52;;;;;;;;;;4997112;28;20472;-83
2021/12/30 01:58:03;;;;;;;0.82;0.40;;;;;;;;;;4996302;28;20043;-83
2021/12/30 02:00:32;;;;;;;0.60;0.40;;;;;;;;;;4996182;28;20112;-83
2021/12/30 02:03:00;;;;;;;1.02;0.50;;;;;;;;;;4995807;28;20113;-83
2021/12/30 02:05:29;;;;;;;1.08;0.30;;;;;;;;;;4995462;28;20058;-83
2021/12/30 02:07:56;;;;;;;1.10;0.65;;;;;;;;;;4995263;28;20051;-83
2021/12/30 02:10:23;;;;;;;1.15;0.50;;;;;;;;;;4996703;28;20046;-83
2021/12/30 02:12:50;;;;;;;0.52;0.32;;;;;;;;;;4996077;28;20055;-83
2021/12/30 02:15:18;;;;;;;0.50;0.40;;;;;;;;;;4996017;28;20046;-83
2021/12/30 02:17:48;;;;;;;0.22;0.20;;;;;;;;;;4995293;28;20120;-83
2021/12/30 02:20:41;;;;;;;0.33;0.30;;;;;;;;;;4995484;28;20482;-83
2021/12/30 02:23:08;;;;;;;1.40;0.63;;;;;;;;;;4995062;28;20050;-83
2021/12/30 02:25:35;;;;;;;0.43;0.30;;;;;;;;;;4996102;28;20104;-83
2021/12/30 02:28:06;;;;;;;1.00;0.50;;;;;;;;;;4995197;28;20050;-83
2021/12/30 02:30:33;;;;;;;0.57;0.40;;;;;;;;;;4995162;28;20050;-83
2021/12/30 02:33:00;;;;;;;0.82;0.30;;;;;;;;;;4994434;28;20046;-82
2021/12/30 02:35:29;;;;;;;0.38;0.30;;;;;;;;;;4994934;28;20097;-83
2021/12/30 02:37:56;;;;;;;0.95;0.43;;;;;;;;;;4994238;28;20058;-83
2021/12/30 02:40:26;;;;;;;1.23;0.60;;;;;;;;;;4994994;28;20145;-83
2021/12/30 02:42:54;;;;;;;0.52;0.32;;;;;;;;;;4994577;28;20146;-83
2021/12/30 02:45:21;;;;;;;0.63;0.50;;;;;;;;;;4994337;28;20050;-83
2021/12/30 02:47:48;;;;;;;0.82;0.50;;;;;;;;;;4993801;28;20074;-83
2021/12/30 02:50:15;;;;;;;1.80;0.50;;;;;;;;;;4994597;28;20053;-83
2021/12/30 02:52:43;;;;;;;0.85;0.50;;;;;;;;;;4995120;28;20046;-83
2021/12/30 02:55:10;;;;;;;1.13;0.50;;;;;;;;;;4995025;28;20054;-83
2021/12/30 02:57:37;;;;;;;0.88;0.60;;;;;;;;;;4994838;28;20046;-83
2021/12/30 03:00:07;;;;;;;1.15;0.60;;;;;;;;;;4997723;28;20532;-83
2021/12/30 03:02:36;;;;;;;1.05;0.50;;;;;;;;;;4999047;28;20058;-83
2021/12/30 03:05:05;;;;;;;2.47;1.02;;;;;;;;;;4998479;28;20058;-83
2021/12/30 03:07:31;;;;;;;0.63;0.40;;;;;;;;;;4998005;28;20498;-83
2021/12/30 03:10:00;;;;;;;1.20;0.50;;;;;;;;;;4998207;28;20456;-83
2021/12/30 03:12:27;;;;;;;1.23;0.60;;;;;;;;;;4997869;28;20042;-83
2021/12/30 03:14:54;;;;;;;0.40;0.40;;;;;;;;;;4997983;28;20306;-83
2021/12/30 03:17:21;;;;;;;1.23;0.60;;;;;;;;;;4997878;28;20077;-83
2021/12/30 03:19:47;;;;;;;0.50;0.38;;;;;;;;;;4997417;28;20097;-83
2021/12/30 03:22:14;;;;;;;2.92;0.60;;;;;;;;;;4998086;28;20460;-83
2021/12/30 03:24:41;;;;;;;1.42;0.50;;;;;;;;;;4997944;28;20051;-83
2021/12/30 03:27:09;;;;;;;0.60;0.40;;;;;;;;;;4997667;28;20097;-83
2021/12/30 03:29:36;;;;;;;0.45;0.38;;;;;;;;;;4997510;28;20171;-83
2021/12/30 03:32:03;;;;;;;1.23;0.52;;;;;;;;;;4997772;28;20089;-83
2021/12/30 03:34:30;;;;;;;0.38;0.38;;;;;;;;;;4998020;28;20105;-83
2021/12/30 03:36:57;;;;;;;1.23;0.65;;;;;;;;;;4997511;28;20452;-83
2021/12/30 03:39:24;;;;;;;0.88;0.57;;;;;;;;;;4996667;28;20394;-83
2021/12/30 03:41:50;;;;;;;0.90;0.50;;;;;;;;;;4996477;28;20093;-83
2021/12/30 03:44:19;;;;;;;1.73;0.60;;;;;;;;;;4996033;28;20050;-83
2021/12/30 03:46:45;;;;;;;1.35;0.60;;;;;;;;;;4996091;28;20096;-83
2021/12/30 03:49:12;;;;;;;1.45;0.60;;;;;;;;;;4995487;28;20042;-83
2021/12/30 03:51:40;;;;;;;1.33;0.60;;;;;;;;;;4995652;28;20051;-83
2021/12/30 03:54:08;;;;;;;1.23;0.50;;;;;;;;;;4995404;28;20051;-83
2021/12/30 03:56:36;;;;;;;3.50;0.75;;;;;;;;;;4995292;28;20454;-83
2021/12/30 03:59:04;;;;;;;1.77;0.50;;;;;;;;;;4995449;28;20497;-83
2021/12/30 04:01:32;;;;;;;1.65;0.60;;;;;;;;;;4995806;28;20050;-83
2021/12/30 04:04:00;;;;;;;1.88;0.60;;;;;;;;;;4995602;28;20054;-83
2021/12/30 04:06:28;;;;;;;0.85;0.40;;;;;;;;;;4995514;28;20189;-83
2021/12/30 04:08:55;;;;;;;0.60;0.40;;;;;;;;;;4995474;28;20137;-83
2021/12/30 04:11:25;;;;;;;1.27;0.45;;;;;;;;;;4996472;28;20109;-82
2021/12/30 04:13:52;;;;;;;0.95;0.60;;;;;;;;;;5000167;28;20082;-83
2021/12/30 04:16:20;;;;;;;1.52;0.60;;;;;;;;;;4999742;28;20469;-83
2021/12/30 04:18:49;;;;;;;2.17;0.80;;;;;;;;;;5000566;28;20584;-82
2021/12/30 04:21:17;;;;;;;2.22;0.95;;;;;;;;;;5001025;28;20061;-83
2021/12/30 04:23:44;;;;;;;1.55;0.60;;;;;;;;;;4998087;28;20120;-83
2021/12/30 04:26:11;;;;;;;0.98;0.50;;;;;;;;;;5014416;28;20097;-83
2021/12/30 04:28:38;;;;;;;0.77;0.70;;;;;;;;;;5019809;28;20036;-83
2021/12/30 04:31:05;;;;;;;0.90;0.60;;;;;;;;;;5019947;28;20034;-83
2021/12/30 04:33:32;;;;;;;0.95;0.57;;;;;;;;;;5020095;28;20050;-84
2021/12/30 04:36:00;;;;;;;2.22;0.80;;;;;;;;;;5012544;28;20054;-84
2021/12/30 04:38:29;;;;;;;1.80;0.70;;;;;;;;;;4999537;28;20082;-84
2021/12/30 04:40:56;;;;;;;1.38;0.70;;;;;;;;;;4998128;28;20050;-83
2021/12/30 04:43:23;;;;;;;1.88;0.60;;;;;;;;;;4997535;28;20050;-83
2021/12/30 04:45:50;;;;;;;2.45;0.70;;;;;;;;;;4995926;28;20043;-83
2021/12/30 04:48:18;;;;;;;1.80;0.80;;;;;;;;;;4995818;28;20105;-83
2021/12/30 04:50:45;;;;;;;1.58;0.60;;;;;;;;;;4995443;28;20572;-83
2021/12/30 04:53:14;;;;;;;0.63;0.50;;;;;;;;;;4995615;28;20125;-83
2021/12/30 04:55:41;;;;;;;2.40;0.60;;;;;;;;;;4995490;28;20046;-83
2021/12/30 04:58:08;;;;;;;2.70;0.82;;;;;;;;;;4995030;28;20050;-83
2021/12/30 05:00:35;;;;;;;1.02;0.60;;;;;;;;;;4994664;28;20100;-83
2021/12/30 05:03:13;;;;;;;2.15;0.60;;;;;;;;;;4995145;28;20050;-83
2021/12/30 05:05:41;;;;;;;2.40;0.63;;;;;;;;;;4995143;28;20691;-83
2021/12/30 05:08:08;;;;;;;1.70;0.70;;;;;;;;;;4994852;28;20053;-83
2021/12/30 05:10:37;;;;;;;1.83;0.82;;;;;;;;;;4994912;28;20048;-83
2021/12/30 05:13:05;;;;;;;1.52;0.70;;;;;;;;;;4995560;28;20050;-83
2021/12/30 05:15:32;;;;;;;2.45;0.70;;;;;;;;;;4995143;28;20137;-83
2021/12/30 05:18:01;;;;;;;1.60;0.70;;;;;;;;;;4996265;28;20051;-83
2021/12/30 05:20:28;;;;;;;1.35;0.70;;;;;;;;;;5000151;28;20046;-83
2021/12/30 05:22:55;;;;;;;1.35;0.70;;;;;;;;;;4995886;28;20050;-83
2021/12/30 05:25:22;;;;;;;1.33;0.80;;;;;;;;;;4997009;28;20073;-83
2021/12/30 05:27:51;;;;;;;2.00;0.80;;;;;;;;;;4995360;28;20057;-82
2021/12/30 05:30:19;;;;;;;1.40;0.70;;;;;;;;;;4996336;28;20081;-83
2021/12/30 05:32:46;;;;;;;0.70;0.68;;;;;;;;;;4995960;28;20497;-83
2021/12/30 05:35:13;;;;;;;1.30;0.80;;;;;;;;;;4995810;28;20514;-83
2021/12/30 05:37:41;;;;;;;2.55;0.80;;;;;;;;;;5022283;23;21556;-80
2021/12/30 05:40:11;;;;;;;1.80;0.80;;;;;;;;;;5017976;28;20136;-81
2021/12/30 05:42:38;;;;;;;1.27;0.90;;;;;;;;;;5016903;28;20076;-80
2021/12/30 05:45:07;;;;;;;0.95;0.68;;;;;;;;;;5018565;28;20061;-80
2021/12/30 05:47:34;;;;;;;1.27;0.60;;;;;;;;;;5016042;28;20471;-80
2021/12/30 05:50:02;;;;;;;1.02;0.73;;;;;;;;;;5021557;28;20054;-80
2021/12/30 05:52:28;;;;;;;2.40;0.60;;;;;;;;;;5026287;28;20110;-80
2021/12/30 05:54:55;;;;;;;1.10;0.57;;;;;;;;;;5026531;28;20582;-80
2021/12/30 05:57:22;;;;;;;1.88;0.77;;;;;;;;;;5017129;28;20049;-80
2021/12/30 05:59:49;;;;;;;0.90;0.60;;;;;;;;;;5016583;28;20042;-80
2021/12/30 06:02:17;;;;;;;3.05;0.70;;;;;;;;;;5014816;28;20050;-80
2021/12/30 06:04:44;;;;;;;1.17;1.08;;;;;;;;;;5014494;28;20054;-80
2021/12/30 06:07:11;;;;;;;1.33;0.80;;;;;;;;;;5013232;28;20061;-80
2021/12/30 06:09:38;;;;;;;0.88;0.65;;;;;;;;;;5013766;28;20046;-80
2021/12/30 06:12:05;;;;;;;1.58;0.70;;;;;;;;;;5013215;28;20049;-79
2021/12/30 06:14:32;;;;;;;1.50;0.70;;;;;;;;;;5013926;28;20049;-80
2021/12/30 06:16:59;;;;;;;1.77;1.08;;;;;;;;;;5013823;28;20045;-79
2021/12/30 06:19:27;;;;;;;1.48;0.80;;;;;;;;;;5013989;28;20112;-80
2021/12/30 06:21:54;;;;;;;1.58;1.05;;;;;;;;;;5014694;28;20049;-79
2021/12/30 06:24:21;;;;;;;2.40;1.50;;;;;;;;;;5014144;28;20061;-79
2021/12/30 06:26:48;;;;;;;1.10;0.80;;;;;;;;;;5013881;28;20093;-80
2021/12/30 06:29:15;;;;;;;1.27;0.70;;;;;;;;;;5015705;28;20050;-80
2021/12/30 06:31:42;;;;;;;1.67;0.70;;;;;;;;;;5013967;28;20081;-80
2021/12/30 06:34:09;;;;;;;2.30;1.10;;;;;;;;;;5015083;28;20115;-80
2021/12/30 06:36:37;;;;;;;1.52;0.80;;;;;;;;;;5017556;28;20049;-80
2021/12/30 06:39:05;;;;;;;1.73;0.80;;;;;;;;;;5017268;28;20050;-80
2021/12/30 06:41:32;;;;;;;3.40;0.90;;;;;;;;;;5017702;28;20042;-80
2021/12/30 06:43:59;;;;;;;2.05;1.00;;;;;;;;;;5017651;28;20054;-80
2021/12/30 06:46:26;;;;;;;1.30;0.85;;;;;;;;;;5023467;28;20570;-80
2021/12/30 06:48:53;;;;;;;1.88;1.00;;;;;;;;;;5017688;28;20103;-81
2021/12/30 06:51:22;;;;;;;1.10;0.75;;;;;;;;;;5017169;28;20524;-81
2021/12/30 06:53:54;;;;;;;1.13;0.70;;;;;;;;;;5017041;28;20053;-81
2021/12/30 06:56:21;;;;;;;2.20;0.98;;;;;;;;;;5017385;28;20133;-81
2021/12/30 06:58:48;;;;;;;2.35;1.02;;;;;;;;;;5016714;28;20049;-81
2021/12/30 07:01:15;;;;;;;3.60;0.82;;;;;;;;;;5016765;28;20046;-81
2021/12/30 07:03:42;;;;;;;1.13;0.90;;;;;;;;;;5016988;28;20111;-81
2021/12/30 07:06:09;;;;;;;1.00;0.70;;;;;;;;;;5029137;28;20046;-81
2021/12/30 07:08:35;;;;;;;1.38;0.80;;;;;;;;;;5026586;28;20049;-80
2021/12/30 07:11:04;;;;;;;1.88;0.80;;;;;;;;;;5029291;28;20104;-81
2021/12/30 07:13:31;;;;;;;1.45;0.90;;;;;;;;;;5029425;28;20124;-81
2021/12/30 07:15:58;;;;;;;1.83;0.70;;;;;;;;;;5023763;28;20104;-81
2021/12/30 07:18:24;;;;;;;1.13;0.63;;;;;;;;;;5026157;28;20560;-81
2021/12/30 07:20:51;;;;;;;2.50;1.05;;;;;;;;;;5028956;28;20093;-81
2021/12/30 07:23:18;;;;;;;1.63;0.75;;;;;;;;;;5026204;28;20050;-81
2021/12/30 07:25:45;;;;;;;1.73;0.82;;;;;;;;;;5018163;28;20081;-81
2021/12/30 07:28:13;;;;;;;1.58;0.75;;;;;;;;;;5017927;28;20049;-81
2021/12/30 07:30:40;;;;;;;1.70;0.80;;;;;;;;;;5018446;28;20458;-81
2021/12/30 07:33:07;;;;;;;2.05;0.70;;;;;;;;;;5018233;28;20062;-81
2021/12/30 07:35:35;;;;;;;2.05;0.98;;;;;;;;;;5017931;28;20153;-82
2021/12/30 07:38:03;;;;;;;1.85;0.90;;;;;;;;;;5017925;28;20104;-82
2021/12/30 07:40:30;;;;;;;1.73;0.75;;;;;;;;;;5017595;28;20056;-81
2021/12/30 07:42:57;;;;;;;1.83;0.85;;;;;;;;;;5017889;28;20116;-82
2021/12/30 07:45:25;;;;;;;1.92;0.80;;;;;;;;;;5018245;28;20076;-82
2021/12/30 07:47:53;;;;;;;3.10;0.80;;;;;;;;;;5024179;28;20050;-81
2021/12/30 07:50:21;;;;;;;0.95;0.65;;;;;;;;;;5017839;28;20116;-81
2021/12/30 07:52:48;;;;;;;2.25;0.90;;;;;;;;;;5017437;28;20042;-81
2021/12/30 07:55:15;;;;;;;0.93;0.60;;;;;;;;;;5016737;28;20519;-81
2021/12/30 07:57:43;;;;;;;1.33;0.73;;;;;;;;;;5016620;28;20050;-81
2021/12/30 08:00:13;;;;;;;1.75;0.80;;;;;;;;;;5018790;28;20100;-81
2021/12/30 08:02:43;;;;;;;2.53;0.95;;;;;;;;;;5017999;28;20053;-81
2021/12/30 08:05:10;;;;;;;2.15;0.80;;;;;;;;;;5017494;28;20053;-81
2021/12/30 08:07:37;;;;;;;3.47;0.80;;;;;;;;;;5016761;28;20072;-81
2021/12/30 08:10:10;;;;;;;1.45;0.80;;;;;;;;;;5017067;28;20074;-81
2021/12/30 08:12:37;;;;;;;1.10;0.68;;;;;;;;;;5017521;28;20070;-81
2021/12/30 08:15:06;;;;;;;2.35;0.77;;;;;;;;;;5018274;28;20050;-82
2021/12/30 08:17:33;;;;;;;4.00;0.70;;;;;;;;;;5017077;28;20109;-80
2021/12/30 08:20:01;;;;;;;1.83;0.70;;;;;;;;;;5018236;28;20444;-81
2021/12/30 08:22:29;;;;;;;2.92;0.70;;;;;;;;;;5017849;28;20539;-81
2021/12/30 08:24:55;;;;;;;1.08;0.60;;;;;;;;;;5017037;28;20076;-81
2021/12/30 08:27:22;;;;;;;1.63;0.70;;;;;;;;;;5016481;28;20078;-81
2021/12/30 08:29:49;;;;;;;1.60;0.70;;;;;;;;;;5016257;28;20046;-81
2021/12/30 08:32:18;;;;;;;1.65;0.63;;;;;;;;;;5016633;28;20045;-82
2021/12/30 08:34:46;;;;;;;2.47;0.70;;;;;;;;;;5016301;28;20432;-81
2021/12/30 08:37:16;;;;;;;1.15;0.50;;;;;;;;;;5015467;28;20045;-81
2021/12/30 08:39:43;;;;;;;1.15;0.65;;;;;;;;;;5016276;28;20596;-81
2021/12/30 08:42:18;;;;;;;0.98;0.50;;;;;;;;;;5016206;28;20054;-82
2021/12/30 08:44:45;;;;;;;0.68;0.40;;;;;;;;;;5017395;28;20072;-81
2021/12/30 08:47:12;;;;;;;1.65;0.50;;;;;;;;;;5021340;28;20259;-81
2021/12/30 08:49:41;;;;;;;1.20;0.50;;;;;;;;;;5023371;28;20053;-81
2021/12/30 08:52:09;;;;;;;1.00;0.57;;;;;;;;;;5019415;28;20117;-81
2021/12/30 08:54:37;;;;;;;1.40;0.50;;;;;;;;;;5015811;28;20132;-81
2021/12/30 08:57:05;;;;;;;0.90;0.50;;;;;;;;;;5014561;28;20722;-81
2021/12/30 08:59:32;;;;;;;2.75;0.80;;;;;;;;;;5015657;28;20058;-82
2021/12/30 09:01:59;;;;;;;1.02;0.65;;;;;;;;;;5015701;28;20089;-81
2021/12/30 09:04:26;;;;;;;3.17;1.30;;;;;;;;;;5016941;28;20448;-81
2021/12/30 09:06:53;;;;;;;1.30;0.57;;;;;;;;;;5015973;28;20096;-82
2021/12/30 09:09:21;;;;;;;1.70;0.70;;;;;;;;;;5015897;28;20476;-81
2021/12/30 09:11:49;;;;;;;1.38;0.68;;;;;;;;;;5016257;28;20103;-81
2021/12/30 09:14:16;;;;;;;1.48;0.65;;;;;;;;;;5024186;28;20116;-81
2021/12/30 09:16:43;;;;;;;2.15;0.70;;;;;;;;;;5024983;28;20053;-81
2021/12/30 09:19:10;;;;;;;2.25;0.77;;;;;;;;;;5025020;28;20469;-82
2021/12/30 09:21:38;;;;;;;1.38;0.70;;;;;;;;;;5024361;28;20524;-81
2021/12/30 09:24:06;;;;;;;1.20;0.70;;;;;;;;;;5024770;28;20078;-81
2021/12/30 09:26:32;;;;;;;2.83;0.80;;;;;;;;;;5025002;28;20050;-81
2021/12/30 09:29:01;;;;;;;0.75;0.60;;;;;;;;;;5026598;28;20079;-82
2021/12/30 09:31:28;;;;;;;1.75;0.82;;;;;;;;;;5026215;28;20049;-81
2021/12/30 09:33:57;;;;;;;1.77;0.80;;;;;;;;;;5026963;28;20528;-82
2021/12/30 09:36:26;;;;;;;3.05;0.77;;;;;;;;;;5027040;28;20053;-82
2021/12/30 09:38:53;;;;;;;3.67;0.73;;;;;;;;;;5025295;28;20057;-83
2021/12/30 09:41:20;;;;;;;1.23;0.50;;;;;;;;;;5027080;28;20050;-81
2021/12/30 09:43:47;;;;;;;1.83;0.60;;;;;;;;;;5027935;28;20050;-81
2021/12/30 09:46:16;;;;;;;1.98;0.82;;;;;;;;;;5027331;28;20080;-80
2021/12/30 09:48:43;;;;;;;1.40;0.70;;;;;;;;;;5028053;28;20093;-81
2021/12/30 09:51:10;;;;;;;2.42;0.90;;;;;;;;;;5031570;28;20048;-81
2021/12/30 09:53:37;;;;;;;2.45;1.45;;;;;;;;;;5033925;28;20076;-81
2021/12/30 09:56:04;;;;;;;2.40;1.08;;;;;;;;;;5029734;28;20104;-81
2021/12/30 09:58:31;;;;;;;1.95;0.80;;;;;;;;;;5027709;28;20053;-80
2021/12/30 10:00:59;;;;;;;2.65;0.80;;;;;;;;;;5026599;28;20057;-81
2021/12/30 10:03:28;;;;;;;2.20;0.85;;;;;;;;;;5026972;28;20057;-81
2021/12/30 10:06:06;;;;;;;2.08;0.85;;;;;;;;;;5022604;28;20050;-81
2021/12/30 10:08:36;;;;;;;3.05;0.90;;;;;;;;;;5017787;28;20046;-82
2021/12/30 10:11:11;;;;;;;1.60;0.70;;;;;;;;;;5023975;28;20049;-82
2021/12/30 10:13:41;;;;;;;3.78;1.27;;;;;;;;;;5021814;28;20080;-82
2021/12/30 10:16:12;;;;;;;1.45;0.73;;;;;;;;;;5017294;28;20046;-82
2021/12/30 10:18:45;;;;;;;1.92;0.73;;;;;;;;;;5016603;28;20444;-82
2021/12/30 10:21:14;;;;;;;2.15;0.80;;;;;;;;;;5016091;28;20493;-82
2021/12/30 10:23:45;;;;;;;2.58;0.82;;;;;;;;;;5016104;28;20046;-82
2021/12/30 10:26:12;;;;;;;2.83;1.15;;;;;;;;;;5016842;28;20058;-82
2021/12/30 10:28:40;;;;;;;1.85;0.90;;;;;;;;;;5015594;28;20101;-82
2021/12/30 10:31:23;;;;;;;1.70;0.77;;;;;;;;;;5015402;28;20046;-81
2021/12/30 10:33:56;;;;;;;1.83;0.68;;;;;;;;;;5016474;28;20056;-83
2021/12/30 10:36:25;;;;;;;2.17;0.80;;;;;;;;;;5020813;28;20548;-83
2021/12/30 10:38:53;;;;;;;8.75;3.92;;;;;;;;;;5044690;28;20049;-82
2021/12/30 10:41:23;;;;;;;3.28;1.52;;;;;;;;;;5030420;28;20111;-80
2021/12/30 10:43:54;;;;;;;2.40;0.82;;;;;;;;;;5029596;28;20101;-81
2021/12/30 10:46:22;;;;;;;1.75;0.70;;;;;;;;;;5029109;28;20128;-80
2021/12/30 10:48:57;;;;;;;2.22;0.82;;;;;;;;;;5026940;28;20050;-81
2021/12/30 10:51:26;;;;;;;4.70;1.05;;;;;;;;;;5024488;28;20049;-81
2021/12/30 10:53:55;;;;;;;2.33;0.80;;;;;;;;;;5035739;28;20046;-80
2021/12/30 10:56:28;;;;;;;3.50;1.45;;;;;;;;;;5038506;28;20046;-80
2021/12/30 10:59:08;;;;;;;3.03;1.20;;;;;;;;;;5041199;28;20512;-79
2021/12/30 11:01:38;;;;;;;3.50;1.10;;;;;;;;;;5038127;28;20427;-81
2021/12/30 11:04:07;;;;;;;4.43;1.55;;;;;;;;;;5036263;28;20046;-81
2021/12/30 11:06:34;;;;;;;2.17;0.63;;;;;;;;;;5035345;28;20045;-79
2021/12/30 11:09:12;;;;;;;1.92;0.80;;;;;;;;;;5032588;28;20053;-82
2021/12/30 11:11:42;;;;;;;2.08;0.60;;;;;;;;;;5035272;28;20061;-80
2021/12/30 11:14:11;;;;;;;0.97;0.63;;;;;;;;;;5034623;28;20095;-81
2021/12/30 11:17:02;;;;;;;2.30;0.77;;;;;;;;;;5035233;28;20104;-81
2021/12/30 11:19:32;;;;;;;2.55;0.80;;;;;;;;;;5036425;28;20459;-82
2021/12/30 11:22:00;;;;;;;1.70;0.73;;;;;;;;;;5025588;28;20140;-81
2021/12/30 11:24:28;;;;;;;1.17;0.57;;;;;;;;;;5018097;28;20100;-79
2021/12/30 11:26:55;;;;;;;5.32;1.00;;;;;;;;;;5036065;28;20459;-84
2021/12/30 11:29:23;;;;;;;0.85;0.60;;;;;;;;;;5038751;28;20562;-80
2021/12/30 11:31:51;;;;;;;1.67;0.77;;;;;;;;;;5038024;28;20049;-81
2021/12/30 11:34:19;;;;;;;2.08;0.80;;;;;;;;;;5038525;28;20049;-83
2021/12/30 11:36:47;;;;;;;1.60;0.80;;;;;;;;;;5039152;28;20112;-82
2021/12/30 11:39:19;;;;;;;1.45;0.60;;;;;;;;;;5037328;23;20046;-82
2021/12/30 11:42:01;;;;;;;2.22;0.80;;;;;;;;;;5021756;28;20053;-86
2021/12/30 11:44:46;;;;;;;1.73;0.90;;;;;;;;;;5032608;28;20052;-81
2021/12/30 11:47:39;;;;;;;2.17;0.80;;;;;;;;;;5040027;28;20038;-80
2021/12/30 11:50:09;;;;;;;1.55;0.70;;;;;;;;;;5039810;28;20049;-83
2021/12/30 11:52:58;;;;;;;2.15;0.90;;;;;;;;;;5034661;28;20060;-88
2021/12/30 11:55:53;;;;;;;2.08;1.00;;;;;;;;;;5020696;28;20073;-82
2021/12/30 11:58:51;;;;;;;3.08;1.10;;;;;;;;;;5022531;28;20092;-84
2021/12/30 12:01:38;;;;;;;7.35;2.30;;;;;;;;;;5022675;28;20455;-83
2021/12/30 12:04:26;;;;;;;6.00;2.45;;;;;;;;;;5016477;28;20350;-83
2021/12/30 12:07:02;;;;;;;2.80;1.17;;;;;;;;;;5017729;28;20516;-83
2021/12/30 12:09:42;;;;;;;2.90;1.13;;;;;;;;;;5018203;28;20500;-83
2021/12/30 12:12:12;;;;;;;2.58;1.20;;;;;;;;;;5020266;28;20156;-82
2021/12/30 12:14:44;;;;;;;1.30;0.80;;;;;;;;;;5018304;28;20049;-80
2021/12/30 12:17:17;;;;;;;2.08;1.00;;;;;;;;;;5015709;28;20153;-83
2021/12/30 12:19:45;;;;;;;2.63;1.10;;;;;;;;;;5018725;28;20042;-82
2021/12/30 12:22:29;;;;;;;2.80;1.00;;;;;;;;;;5017443;28;20459;-83
2021/12/30 12:25:09;;;;;;;3.30;1.30;;;;;;;;;;5018885;28;20608;-81
2021/12/30 12:27:37;;;;;;;3.92;1.20;;;;;;;;;;5019825;28;20116;-82
2021/12/30 12:30:08;;;;;;;1.60;1.00;;;;;;;;;;5019854;28;20050;-83
2021/12/30 12:32:38;;;;;;;1.55;0.75;;;;;;;;;;5020264;28;20054;-83
2021/12/30 12:35:24;;;;;;;;;;;;;;;;;;5018685;28;20087;-83
2021/12/30 12:37:55;;;;;;;2.35;1.10;;;;;;;;;;5018548;28;19921;-82
2021/12/30 12:40:30;;;;;;;1.75;0.90;;;;;;;;;;5019476;28;20065;-82
2021/12/30 12:43:03;;;;;;;2.88;1.00;;;;;;;;;;5019392;28;20057;-81
2021/12/30 12:45:33;;;;;;;1.52;0.70;;;;;;;;;;5020086;28;20049;-83
2021/12/30 12:48:23;;;;;;;1.73;0.70;;;;;;;;;;5018586;28;20104;-82
2021/12/30 12:50:53;;;;;;;2.03;0.90;;;;;;;;;;5018399;28;20080;-83
2021/12/30 12:53:37;;;;;;;2.72;0.98;;;;;;;;;;5017960;28;20077;-84
2021/12/30 12:56:08;;;;;;;2.05;1.08;;;;;;;;;;5018518;28;20056;-85
2021/12/30 12:58:40;;;;;;;1.73;0.90;;;;;;;;;;5027789;23;20060;-62
2021/12/30 13:01:12;;;;;;;1.90;1.02;;;;;;;;;;5031120;28;20053;-62
2021/12/30 13:03:39;;;;;;;2.60;0.80;;;;;;;;;;5031032;28;20060;-62
2021/12/30 13:06:08;;;;;;;1.88;0.90;;;;;;;;;;5031190;28;20422;-61
2021/12/30 13:08:37;;;;;;;1.90;0.98;;;;;;;;;;5031201;28;20522;-61
2021/12/30 13:11:08;;;;;;;1.55;0.90;;;;;;;;;;5030858;28;20050;-62
2021/12/30 13:13:37;;;;;;;1.42;0.85;;;;;;;;;;5031294;28;20064;-61
2021/12/30 13:16:06;;;;;;;2.17;0.90;;;;;;;;;;5031568;28;20054;-61
2021/12/30 13:18:34;;;;;;;1.35;0.80;;;;;;;;;;5031293;28;20053;-62
2021/12/30 13:21:13;;;;;;;1.23;0.82;;;;;;;;;;5031113;28;20106;-62
2021/12/30 13:23:41;;;;;;;1.47;0.70;;;;;;;;;;5031136;28;20526;-62
2021/12/30 13:26:12;;;;;;;1.45;0.73;;;;;;;;;;5030739;28;20299;-61
2021/12/30 13:28:49;;;;;;;1.80;0.88;;;;;;;;;;5031136;28;20075;-62
2021/12/30 13:31:18;;;;;;;1.92;0.90;;;;;;;;;;5030638;28;20041;-61
2021/12/30 13:33:56;;;;;;;1.58;0.77;;;;;;;;;;5031487;28;20482;-61
2021/12/30 13:36:24;;;;;;;2.15;0.90;;;;;;;;;;5030556;28;20065;-62
2021/12/30 13:38:51;;;;;;;2.15;0.80;;;;;;;;;;5029034;28;20045;-61
2021/12/30 13:41:22;;;;;;;1.75;0.80;;;;;;;;;;5030610;28;20046;-62
2021/12/30 13:43:50;;;;;;;2.05;0.93;;;;;;;;;;5030314;28;20049;-62
2021/12/30 13:46:24;;;;;;;1.65;0.80;;;;;;;;;;5030349;28;20049;-62
2021/12/30 13:48:52;;;;;;;1.90;1.10;;;;;;;;;;5030997;28;20099;-61
2021/12/30 13:51:24;;;;;;;1.63;0.90;;;;;;;;;;5029274;28;20054;-61
2021/12/30 13:53:53;;;;;;;2.38;0.82;;;;;;;;;;5010975;28;20506;-61
2021/12/30 13:56:23;;;;;;;1.88;1.00;;;;;;;;;;5023942;28;20057;-61
2021/12/30 13:58:52;;;;;;;1.20;0.80;;;;;;;;;;5029976;28;20395;-61
2021/12/30 14:01:22;;;;;;;2.42;1.00;;;;;;;;;;5030325;28;20156;-62
2021/12/30 14:03:51;;;;;;;1.55;0.80;;;;;;;;;;5030192;28;20057;-62
2021/12/30 14:06:20;;;;;;;1.63;0.77;;;;;;;;;;5030098;28;20387;-61
2021/12/30 14:08:51;;;;;;;1.23;0.70;;;;;;;;;;5030257;28;20505;-62
2021/12/30 14:11:26;;;;;;;1.60;0.60;;;;;;;;;;5023848;28;20041;-61
2021/12/30 14:13:55;;;;;;;1.50;0.85;;;;;;;;;;5030104;28;20132;-62
2021/12/30 14:16:24;;;;;;;1.30;0.60;;;;;;;;;;5030476;28;20331;-62
2021/12/30 14:18:53;;;;;;;1.23;0.70;;;;;;;;;;5029897;28;20500;-62
2021/12/30 14:21:23;;;;;;;1.90;1.00;;;;;;;;;;5030522;28;20478;-62
2021/12/30 14:23:53;;;;;;;3.17;1.23;;;;;;;;;;5024970;28;20451;-61
2021/12/30 14:26:24;;;;;;;1.52;0.93;;;;;;;;;;5016243;28;20054;-62
2021/12/30 14:28:59;;;;;;;2.40;0.82;;;;;;;;;;4990596;28;20057;-62
2021/12/30 14:31:29;;;;;;;1.75;0.80;;;;;;;;;;4990791;28;20073;-61
2021/12/30 14:34:18;;;;;;;2.30;1.13;;;;;;;;;;4991100;28;20057;-61
2021/12/30 14:37:03;;;;;;;1.90;0.77;;;;;;;;;;4988895;28;20053;-61
2021/12/30 14:39:39;;;;;;;1.75;0.70;;;;;;;;;;4990619;28;20503;-61
2021/12/30 14:42:17;;;;;;;1.50;0.80;;;;;;;;;;4991083;28;20402;-61
2021/12/30 14:44:47;;;;;;;1.58;0.70;;;;;;;;;;4990436;28;20061;-60
2021/12/30 14:47:16;;;;;;;1.85;1.00;;;;;;;;;;5001255;28;20069;-61
2021/12/30 14:49:58;;;;;;;1.45;0.82;;;;;;;;;;5010080;28;20057;-61
2021/12/30 14:52:28;;;;;;;2.08;0.88;;;;;;;;;;5009952;28;20057;-65
2021/12/30 14:54:56;;;;;;;1.07;0.90;;;;;;;;;;5011416;28;20057;-66
2021/12/30 14:57:25;;;;;;;2.85;1.30;;;;;;;;;;5014043;28;20525;-68